createdAt,value
2022-11-04T00:01:50.517Z,12.43
2022-11-04T00:04:20.855Z,12.27
2022-11-04T00:06:50.469Z,10.63
2022-11-04T00:09:20.396Z,8.50
2022-11-04T00:12:05.862Z,10.40
2022-11-04T00:14:34.909Z,8.70
2022-11-04T00:17:22.062Z,9.30
2022-11-04T00:20:09.254Z,8.97
2022-11-04T00:22:57.080Z,9.83
2022-11-04T00:25:42.774Z,9.90
2022-11-04T00:28:30.603Z,10.10
2022-11-04T00:31:20.020Z,9.33
2022-11-04T00:33:47.471Z,8.33
2022-11-04T00:36:15.746Z,9.37
2022-11-04T00:38:45.316Z,8.77
2022-11-04T00:41:27.359Z,8.87
2022-11-04T00:43:57.140Z,9.80
2022-11-04T00:46:25.410Z,8.70
2022-11-04T00:48:53.437Z,8.20
2022-11-04T00:51:21.833Z,8.20
2022-11-04T00:53:51.743Z,7.00
2022-11-04T00:56:19.804Z,6.43
2022-11-04T00:58:49.569Z,6.17
2022-11-04T01:01:19.101Z,6.23
2022-11-04T01:03:48.045Z,6.67
2022-11-04T01:06:16.125Z,5.60
2022-11-04T01:08:44.212Z,5.10
2022-11-04T01:11:13.910Z,4.80
2022-11-04T01:13:42.625Z,4.63
2022-11-04T01:16:12.861Z,4.20
2022-11-04T01:18:41.462Z,3.63
2022-11-04T01:21:11.547Z,4.40
2022-11-04T01:23:40.296Z,3.73
2022-11-04T01:26:08.812Z,3.90
2022-11-04T01:28:38.150Z,4.57
2022-11-04T01:31:07.572Z,4.57
2022-11-04T01:33:35.790Z,3.87
2022-11-04T01:36:04.378Z,3.63
2022-11-04T01:38:32.470Z,3.37
2022-11-04T01:41:00.659Z,3.20
2022-11-04T01:43:46.175Z,3.10
2022-11-04T01:46:24.287Z,3.37
2022-11-04T01:48:53.682Z,3.40
2022-11-04T01:51:22.309Z,2.80
2022-11-04T01:53:53.445Z,2.63
2022-11-04T01:56:21.643Z,3.00
2022-11-04T01:58:54.521Z,3.20
2022-11-04T02:01:22.620Z,2.70
2022-11-04T02:03:55.503Z,2.50
2022-11-04T02:06:23.858Z,2.40
2022-11-04T02:08:52.421Z,2.07
2022-11-04T02:11:38.115Z,1.67
2022-11-04T02:14:07.769Z,1.70
2022-11-04T02:16:41.198Z,1.90
2022-11-04T02:19:28.224Z,1.90
2022-11-04T02:22:23.334Z,1.93
2022-11-04T02:25:25.583Z,1.70
2022-11-04T02:28:22.818Z,1.33
2022-11-04T02:30:56.298Z,1.40
2022-11-04T02:33:30.873Z,1.33
2022-11-04T02:36:05.540Z,1.50
2022-11-04T02:38:39.747Z,1.40
2022-11-04T02:41:15.440Z,1.30
2022-11-04T02:43:53.270Z,1.63
2022-11-04T02:46:28.532Z,1.73
2022-11-04T02:49:00.857Z,1.73
2022-11-04T02:51:33.044Z,1.57
2022-11-04T02:54:07.239Z,1.10
2022-11-04T02:56:38.824Z,1.50
2022-11-04T02:59:12.042Z,1.40
2022-11-04T03:01:44.567Z,1.47
2022-11-04T03:04:16.193Z,1.30
2022-11-04T03:06:48.746Z,1.20
2022-11-04T03:09:18.034Z,1.20
2022-11-04T03:11:49.518Z,1.47
2022-11-04T03:14:21.774Z,1.30
2022-11-04T03:16:54.240Z,1.33
2022-11-04T03:19:28.006Z,1.30
2022-11-04T03:22:00.328Z,1.70
2022-11-04T03:24:28.900Z,1.17
2022-11-04T03:27:03.156Z,1.23
2022-11-04T03:29:34.614Z,1.47
2022-11-04T03:32:13.106Z,1.57
2022-11-04T03:34:41.275Z,1.37
2022-11-04T03:37:09.573Z,1.33
2022-11-04T03:39:37.848Z,1.47
2022-11-04T03:42:20.560Z,1.10
2022-11-04T03:44:50.744Z,1.37
2022-11-04T03:47:23.099Z,1.50
2022-11-04T03:49:52.567Z,1.40
2022-11-04T03:52:21.773Z,1.23
2022-11-04T03:54:49.868Z,1.00
2022-11-04T03:57:35.309Z,1.40
2022-11-04T04:00:11.254Z,1.10
2022-11-04T04:02:53.262Z,1.50
2022-11-04T04:05:26.229Z,1.60
2022-11-04T04:08:02.360Z,1.43
2022-11-04T04:10:41.810Z,1.97
2022-11-04T04:13:20.586Z,1.50
2022-11-04T04:15:54.628Z,1.53
2022-11-04T04:18:31.783Z,1.20
2022-11-04T04:21:03.223Z,1.67
2022-11-04T04:23:52.800Z,1.43
2022-11-04T04:26:40.734Z,1.30
2022-11-04T04:29:09.511Z,1.33
2022-11-04T04:31:51.334Z,1.20
2022-11-04T04:34:23.817Z,1.20
2022-11-04T04:36:57.248Z,1.20
2022-11-04T04:39:47.827Z,1.07
2022-11-04T04:42:33.359Z,1.20
2022-11-04T04:45:06.863Z,1.33
2022-11-04T04:47:43.385Z,1.50
2022-11-04T04:50:15.205Z,1.47
2022-11-04T04:52:46.148Z,0.97
2022-11-04T04:55:15.586Z,1.23
2022-11-04T04:57:44.021Z,1.20
2022-11-04T05:00:16.325Z,1.17
2022-11-04T05:02:44.423Z,1.40
2022-11-04T05:07:44.140Z,1.33
2022-11-04T05:10:14.392Z,1.37
2022-11-04T05:13:00.591Z,1.33
2022-11-04T05:15:29.479Z,1.70
2022-11-04T05:17:58.909Z,1.83
2022-11-04T05:20:30.364Z,1.50
2022-11-04T05:22:58.496Z,1.60
2022-11-04T05:25:26.547Z,1.17
2022-11-04T05:27:54.565Z,1.70
2022-11-04T05:30:22.521Z,1.43
2022-11-04T05:32:50.445Z,1.67
2022-11-04T05:35:18.665Z,1.30
2022-11-04T05:37:48.093Z,2.10
2022-11-04T05:40:16.317Z,1.30
2022-11-04T05:42:44.372Z,1.50
2022-11-04T05:45:12.743Z,1.70
2022-11-04T05:47:40.790Z,1.90
2022-11-04T05:50:09.553Z,1.40
2022-11-04T05:52:37.656Z,1.70
2022-11-04T05:55:07.869Z,1.60
2022-11-04T05:57:38.203Z,1.90
2022-11-04T06:00:07.969Z,1.70
2022-11-04T06:02:36.138Z,2.10
2022-11-04T06:05:04.424Z,1.77
2022-11-04T06:07:32.489Z,1.80
2022-11-04T06:10:00.482Z,1.53
2022-11-04T06:12:29.923Z,1.90
2022-11-04T06:14:58.112Z,1.60
2022-11-04T06:17:26.302Z,1.40
2022-11-04T06:19:54.223Z,1.77
2022-11-04T06:22:22.288Z,1.40
2022-11-04T06:24:50.432Z,3.17
2022-11-04T06:27:18.638Z,1.90
2022-11-04T06:29:48.077Z,2.10
2022-11-04T06:36:06.871Z,2.40
2022-11-04T06:38:38.537Z,1.77
2022-11-04T06:41:07.583Z,2.20
2022-11-04T06:43:35.705Z,2.60
2022-11-04T06:46:05.846Z,3.50
2022-11-04T06:48:34.031Z,2.70
2022-11-04T06:51:02.302Z,3.57
2022-11-04T06:53:30.545Z,2.70
2022-11-04T06:56:04.405Z,2.70
2022-11-04T07:02:14.534Z,1.63
2022-11-04T07:04:42.579Z,2.13
2022-11-04T07:07:10.735Z,2.20
2022-11-04T07:09:38.713Z,2.23
2022-11-04T07:12:07.047Z,2.90
2022-11-04T07:14:35.161Z,2.40
2022-11-04T07:17:03.623Z,1.80
2022-11-04T07:19:33.085Z,2.10
2022-11-04T07:22:01.145Z,1.90
2022-11-04T07:24:29.272Z,1.90
2022-11-04T07:26:57.440Z,2.03
2022-11-04T07:29:25.534Z,2.40
2022-11-04T07:31:54.257Z,2.00
2022-11-04T07:34:22.548Z,2.03
2022-11-04T07:36:52.035Z,2.00
2022-11-04T07:39:20.147Z,2.07
2022-11-04T07:41:48.092Z,2.77
2022-11-04T07:44:16.083Z,3.03
2022-11-04T07:46:44.605Z,2.03
2022-11-04T07:49:12.698Z,2.50
2022-11-04T07:51:40.991Z,2.57
2022-11-04T07:54:10.749Z,2.53
2022-11-04T07:56:38.860Z,1.90
2022-11-04T07:59:07.658Z,1.53
2022-11-04T08:01:36.012Z,1.77
2022-11-04T08:04:05.129Z,2.80
2022-11-04T08:06:35.810Z,2.10
2022-11-04T08:09:05.047Z,1.93
2022-11-04T08:11:38.202Z,1.60
2022-11-04T08:14:06.632Z,1.87
2022-11-04T08:16:34.915Z,2.10
2022-11-04T08:19:13.150Z,2.87
2022-11-04T08:22:32.986Z,2.00
2022-11-04T08:25:08.025Z,3.20
2022-11-04T08:27:40.562Z,2.00
2022-11-04T08:30:10.066Z,1.77
2022-11-04T08:32:38.066Z,1.73
2022-11-04T08:35:10.397Z,1.80
2022-11-04T08:37:39.183Z,2.07
2022-11-04T08:40:28.943Z,1.80
2022-11-04T08:42:58.294Z,1.80
2022-11-04T08:45:29.985Z,2.50
2022-11-04T08:48:05.503Z,1.40
2022-11-04T08:50:33.924Z,1.80
2022-11-04T08:53:02.460Z,2.50
2022-11-04T08:55:30.621Z,1.80
2022-11-04T08:58:00.612Z,1.60
2022-11-04T09:00:28.861Z,1.73
2022-11-04T09:02:56.931Z,2.63
2022-11-04T09:05:26.248Z,2.40
2022-11-04T09:07:54.277Z,1.50
2022-11-04T09:10:22.538Z,2.43
2022-11-04T09:12:50.755Z,2.20
2022-11-04T09:15:20.214Z,1.83
2022-11-04T09:17:48.362Z,1.67
2022-11-04T09:20:16.366Z,1.90
2022-11-04T09:22:45.938Z,1.43
2022-11-04T09:25:14.085Z,2.33
2022-11-04T09:27:42.157Z,2.03
2022-11-04T09:30:11.754Z,1.80
2022-11-04T09:32:41.201Z,2.40
2022-11-04T09:35:10.244Z,2.50
2022-11-04T09:37:38.272Z,2.20
2022-11-04T09:40:07.569Z,2.77
2022-11-04T09:42:50.918Z,2.27
2022-11-04T09:45:22.474Z,2.80
2022-11-04T09:47:56.697Z,2.50
2022-11-04T09:50:27.749Z,3.10
2022-11-04T09:52:59.969Z,1.43
2022-11-04T09:55:33.616Z,2.10
2022-11-04T09:58:01.795Z,1.87
2022-11-04T10:00:33.173Z,2.00
2022-11-04T10:03:17.983Z,2.60
2022-11-04T10:06:01.371Z,1.60
2022-11-04T10:08:45.573Z,1.37
2022-11-04T10:11:23.669Z,1.77
2022-11-04T10:14:14.848Z,3.00
2022-11-04T10:16:53.705Z,1.50
2022-11-04T10:19:39.552Z,2.77
2022-11-04T10:22:14.777Z,1.90
2022-11-04T10:24:49.222Z,2.00
2022-11-04T10:27:20.918Z,2.00
2022-11-04T10:29:54.333Z,2.23
2022-11-04T10:32:26.312Z,2.10
2022-11-04T10:35:00.092Z,2.03
2022-11-04T10:37:28.797Z,1.63
2022-11-04T10:40:16.344Z,1.93
2022-11-04T10:42:45.008Z,1.87
2022-11-04T10:45:15.509Z,5.57
2022-11-04T10:47:52.880Z,3.40
2022-11-04T10:50:30.565Z,2.13
2022-11-04T10:53:12.652Z,2.87
2022-11-04T10:55:48.150Z,2.00
2022-11-04T10:58:25.197Z,2.07
2022-11-04T11:00:54.656Z,3.00
2022-11-04T11:03:30.244Z,1.67
2022-11-04T11:06:22.229Z,1.60
2022-11-04T11:08:50.616Z,1.90
2022-11-04T11:11:35.565Z,2.10
2022-11-04T11:14:03.961Z,1.97
2022-11-04T11:16:32.432Z,2.10
2022-11-04T11:19:33.455Z,2.17
2022-11-04T11:22:03.309Z,2.73
2022-11-04T11:24:34.002Z,2.57
2022-11-04T11:27:23.066Z,1.70
2022-11-04T11:29:56.346Z,2.33
2022-11-04T11:32:38.325Z,1.73
2022-11-04T11:35:17.036Z,1.90
2022-11-04T11:37:48.907Z,1.70
2022-11-04T11:41:03.486Z,1.50
2022-11-04T11:43:32.986Z,1.80
2022-11-04T11:46:04.171Z,1.70
2022-11-04T11:48:39.613Z,1.47
2022-11-04T11:51:08.924Z,1.73
2022-11-04T11:53:45.678Z,2.10
2022-11-04T11:57:12.165Z,1.47
2022-11-04T12:02:41.193Z,2.07
2022-11-04T12:11:08.513Z,1.43
2022-11-04T12:13:44.825Z,1.50
2022-11-04T12:16:28.193Z,1.93
2022-11-04T12:19:26.331Z,1.93
2022-11-04T12:22:01.493Z,1.10
2022-11-04T12:24:39.764Z,4.00
2022-11-04T12:27:19.445Z,1.47
2022-11-04T12:30:03.603Z,1.70
2022-11-04T12:32:45.203Z,1.93
2022-11-04T12:35:33.921Z,2.10
2022-11-04T12:38:20.239Z,1.63
2022-11-04T12:43:57.386Z,2.17
2022-11-04T12:46:34.040Z,1.20
2022-11-04T12:49:26.361Z,1.53
2022-11-04T12:52:07.449Z,1.57
2022-11-04T12:55:00.826Z,1.60
2022-11-04T12:57:36.023Z,1.70
2022-11-04T13:00:11.544Z,3.17
2022-11-04T13:02:45.851Z,1.63
2022-11-04T13:05:42.490Z,1.70
2022-11-04T13:08:18.289Z,2.13
2022-11-04T13:10:52.990Z,2.57
2022-11-04T13:13:28.520Z,1.50
2022-11-04T13:16:00.489Z,1.83
2022-11-04T13:18:33.134Z,1.80
2022-11-04T13:21:05.468Z,1.50
2022-11-04T13:23:41.475Z,1.70
2022-11-04T13:26:14.281Z,1.90
2022-11-04T13:28:43.799Z,1.60
2022-11-04T13:31:23.530Z,1.70
2022-11-04T13:33:56.488Z,1.73
2022-11-04T13:36:35.040Z,1.70
2022-11-04T13:39:12.833Z,1.57
2022-11-04T13:42:16.005Z,2.37
2022-11-04T13:44:47.390Z,1.53
2022-11-04T13:47:22.214Z,1.90
2022-11-04T13:49:53.785Z,1.50
2022-11-04T13:52:22.937Z,1.40
2022-11-04T13:54:57.276Z,1.70
2022-11-04T13:57:27.226Z,1.93
2022-11-04T14:00:23.684Z,1.47
2022-11-04T14:02:53.711Z,1.53
2022-11-04T14:05:58.427Z,1.70
2022-11-04T14:08:26.727Z,2.80
2022-11-04T14:11:04.588Z,1.47
2022-11-04T14:14:04.801Z,2.03
2022-11-04T14:16:44.863Z,1.87
2022-11-04T14:19:58.240Z,2.10
2022-11-04T14:22:46.140Z,1.90
2022-11-04T14:25:31.447Z,1.90
2022-11-04T14:28:01.915Z,3.03
2022-11-04T14:30:44.233Z,2.23
2022-11-04T14:33:37.847Z,1.83
2022-11-04T14:36:31.008Z,1.60
2022-11-04T14:39:07.327Z,1.80
2022-11-04T14:41:56.665Z,2.07
2022-11-04T14:44:32.455Z,2.53
2022-11-04T14:47:07.595Z,2.30
2022-11-04T14:49:43.475Z,1.33
2022-11-04T14:52:21.186Z,1.50
2022-11-04T14:54:52.561Z,1.33
2022-11-04T14:57:22.737Z,1.47
2022-11-04T14:59:52.255Z,1.83
2022-11-04T15:02:26.326Z,1.50
2022-11-04T15:04:58.757Z,1.77
2022-11-04T15:07:37.242Z,1.80
2022-11-04T15:10:24.678Z,2.60
2022-11-04T15:12:55.194Z,1.70
2022-11-04T15:15:37.767Z,1.43
2022-11-04T15:18:08.794Z,1.50
2022-11-04T15:20:45.950Z,2.13
2022-11-04T15:23:17.692Z,2.03
2022-11-04T15:25:51.317Z,1.90
2022-11-04T15:28:22.325Z,1.80
2022-11-04T15:31:07.959Z,1.63
2022-11-04T15:33:41.393Z,1.97
2022-11-04T15:36:15.053Z,1.80
2022-11-04T15:38:49.248Z,1.70
2022-11-04T15:41:39.085Z,2.30
2022-11-04T15:44:16.377Z,2.60
2022-11-04T15:46:50.996Z,2.10
2022-11-04T15:49:26.253Z,2.70
2022-11-04T15:51:57.069Z,2.97
2022-11-04T15:54:29.586Z,3.00
2022-11-04T15:57:02.433Z,4.33
2022-11-04T15:59:34.031Z,2.67
2022-11-04T16:02:04.729Z,2.50
2022-11-04T16:04:33.758Z,2.60
2022-11-04T16:07:23.201Z,2.10
2022-11-04T16:09:53.291Z,3.07
2022-11-04T16:12:31.519Z,2.57
2022-11-04T16:15:00.137Z,3.30
2022-11-04T16:17:30.171Z,2.73
2022-11-04T16:20:01.173Z,2.73
2022-11-04T16:22:31.793Z,3.00
2022-11-04T16:25:01.606Z,2.40
2022-11-04T16:27:33.546Z,2.77
2022-11-04T16:30:10.513Z,2.90
2022-11-04T16:32:43.838Z,2.80
2022-11-04T16:35:18.428Z,3.00
2022-11-04T16:37:46.955Z,2.97
2022-11-04T16:40:15.854Z,3.80
2022-11-04T16:42:45.961Z,2.93
2022-11-04T16:45:23.006Z,3.57
2022-11-04T16:47:51.731Z,3.27
2022-11-04T16:50:20.250Z,4.13
2022-11-04T16:52:48.431Z,3.70
2022-11-04T16:55:16.658Z,3.70
2022-11-04T16:57:46.708Z,4.03
2022-11-04T17:00:20.989Z,5.23
2022-11-04T17:02:49.635Z,2.80
2022-11-04T17:05:18.748Z,3.80
2022-11-04T17:07:53.613Z,2.63
2022-11-04T17:10:35.693Z,3.80
2022-11-04T17:13:05.136Z,3.63
2022-11-04T17:15:41.137Z,3.90
2022-11-04T17:18:10.604Z,4.37
2022-11-04T17:20:40.644Z,3.80
2022-11-04T17:23:09.195Z,4.03
2022-11-04T17:25:37.460Z,5.40
2022-11-04T17:28:07.004Z,4.30
2022-11-04T17:30:35.006Z,5.30
2022-11-04T17:33:06.474Z,4.93
2022-11-04T17:35:36.625Z,6.33
2022-11-04T17:38:04.958Z,5.53
2022-11-04T17:40:32.968Z,4.50
2022-11-04T17:43:18.924Z,4.83
2022-11-04T17:46:08.595Z,5.07
2022-11-04T17:48:36.634Z,5.27
2022-11-04T17:51:08.435Z,4.60
2022-11-04T17:53:36.414Z,4.60
2022-11-04T17:56:04.987Z,4.17
2022-11-04T17:58:33.749Z,4.40
2022-11-04T18:01:10.763Z,4.70
2022-11-04T18:03:38.980Z,3.80
2022-11-04T18:06:07.933Z,5.47
2022-11-04T18:08:55.153Z,4.60
2022-11-04T18:11:42.239Z,4.40
2022-11-04T18:14:16.267Z,5.37
2022-11-04T18:16:48.251Z,4.80
2022-11-04T18:19:17.128Z,5.30
2022-11-04T18:21:45.709Z,5.00
2022-11-04T18:24:24.805Z,5.70
2022-11-04T18:26:53.427Z,5.00
2022-11-04T18:29:21.564Z,7.03
2022-11-04T18:31:50.916Z,5.60
2022-11-04T18:34:19.984Z,6.17
2022-11-04T18:36:48.463Z,6.60
2022-11-04T18:39:18.935Z,6.10
2022-11-04T18:41:47.678Z,5.83
2022-11-04T18:44:17.352Z,5.67
2022-11-04T18:46:45.761Z,6.20
2022-11-04T18:49:15.742Z,6.37
2022-11-04T18:51:45.161Z,5.70
2022-11-04T18:54:14.726Z,4.97
2022-11-04T18:56:43.003Z,5.57
2022-11-04T18:59:12.825Z,6.30
2022-11-04T19:01:40.989Z,6.67
2022-11-04T19:04:09.603Z,6.97
2022-11-04T19:06:42.315Z,7.00
2022-11-04T19:12:17.817Z,7.23
2022-11-04T19:14:45.857Z,6.23
2022-11-04T19:17:13.998Z,6.43
2022-11-04T19:19:43.714Z,6.17
2022-11-04T19:22:14.904Z,5.93
2022-11-04T19:24:43.305Z,6.03
2022-11-04T19:27:11.580Z,5.70
2022-11-04T19:29:39.890Z,6.60
2022-11-04T19:32:13.736Z,4.77
2022-11-04T19:34:42.255Z,5.03
2022-11-04T19:37:12.041Z,5.60
2022-11-04T19:39:40.677Z,5.20
2022-11-04T19:42:26.762Z,5.43
2022-11-04T19:44:54.905Z,5.50
2022-11-04T19:47:22.973Z,6.70
2022-11-04T19:49:50.992Z,6.00
2022-11-04T19:52:20.676Z,6.73
2022-11-04T19:54:48.664Z,7.20
2022-11-04T19:57:16.774Z,5.50
2022-11-04T19:59:44.899Z,6.63
2022-11-04T20:02:15.424Z,5.13
2022-11-04T20:04:43.549Z,5.77
2022-11-04T20:07:11.571Z,5.03
2022-11-04T20:09:41.035Z,5.47
2022-11-04T20:12:26.418Z,5.70
2022-11-04T20:17:39.809Z,5.80
2022-11-04T20:20:09.402Z,5.40
2022-11-04T20:22:37.723Z,7.27
2022-11-04T20:25:08.943Z,5.10
2022-11-04T20:27:37.558Z,5.43
2022-11-04T20:30:07.627Z,5.57
2022-11-04T20:32:38.147Z,5.07
2022-11-04T20:35:07.282Z,4.63
2022-11-04T20:37:35.565Z,4.73
2022-11-04T20:40:04.123Z,5.17
2022-11-04T20:42:33.515Z,5.97
2022-11-04T20:45:01.500Z,5.53
2022-11-04T20:47:31.321Z,5.53
2022-11-04T20:49:59.655Z,5.20
2022-11-04T20:52:27.676Z,5.70
2022-11-04T20:54:55.617Z,5.43
2022-11-04T20:57:25.567Z,4.97
2022-11-04T20:59:55.455Z,4.80
2022-11-04T21:02:24.846Z,3.97
2022-11-04T21:04:54.172Z,3.53
2022-11-04T21:07:22.347Z,3.60
2022-11-04T21:09:51.148Z,6.13
2022-11-04T21:12:19.713Z,3.40
2022-11-04T21:14:47.672Z,3.77
2022-11-04T21:17:16.995Z,3.13
2022-11-04T21:19:45.055Z,3.23
2022-11-04T21:22:12.957Z,3.60
2022-11-04T21:24:40.893Z,2.47
2022-11-04T21:27:12.759Z,2.20
2022-11-04T21:29:48.126Z,2.17
2022-11-04T21:32:21.323Z,2.70
2022-11-04T21:34:49.348Z,2.50
2022-11-04T21:37:17.738Z,2.10
2022-11-04T21:39:45.801Z,2.30
2022-11-04T21:42:13.907Z,2.17
2022-11-04T21:44:42.143Z,2.97
2022-11-04T21:47:10.144Z,4.37
2022-11-04T21:49:39.660Z,2.40
2022-11-04T21:52:07.777Z,2.63
2022-11-04T21:58:16.872Z,2.90
2022-11-04T22:00:44.874Z,2.70
2022-11-04T22:03:13.218Z,2.83
2022-11-04T22:05:42.770Z,2.80
2022-11-04T22:08:21.096Z,2.80
2022-11-04T22:10:49.895Z,4.17
2022-11-04T22:13:17.918Z,3.10
2022-11-04T22:16:01.530Z,2.90
2022-11-04T22:18:31.522Z,2.27
2022-11-04T22:21:11.864Z,2.97
2022-11-04T22:23:40.162Z,3.90
2022-11-04T22:26:11.192Z,2.60
2022-11-04T22:28:39.203Z,2.90
2022-11-04T22:31:08.779Z,3.47
2022-11-04T22:33:37.803Z,2.50
2022-11-04T22:36:08.156Z,2.73
2022-11-04T22:38:36.731Z,3.03
2022-11-04T22:41:06.647Z,3.50
2022-11-04T22:43:34.885Z,2.57
2022-11-04T22:46:07.682Z,3.27
2022-11-04T22:48:36.844Z,3.27
2022-11-04T22:51:07.049Z,3.10
2022-11-04T22:53:35.138Z,2.97
2022-11-04T22:56:04.832Z,4.53
2022-11-04T22:58:32.979Z,3.73
2022-11-04T23:01:02.772Z,3.60
2022-11-04T23:03:30.958Z,3.40
2022-11-04T23:06:01.148Z,3.30
2022-11-04T23:08:32.186Z,3.70
2022-11-04T23:11:20.025Z,3.20
2022-11-04T23:14:14.309Z,3.37
2022-11-04T23:17:04.186Z,3.77
2022-11-04T23:19:32.210Z,4.30
2022-11-04T23:22:17.637Z,4.40
2022-11-04T23:25:04.432Z,4.20
2022-11-04T23:27:50.454Z,3.90
2022-11-04T23:30:25.772Z,4.47
2022-11-04T23:32:55.697Z,4.67
2022-11-04T23:35:42.809Z,4.43
2022-11-04T23:38:11.422Z,5.00
2022-11-04T23:40:40.965Z,4.70
2022-11-04T23:43:08.542Z,5.40
2022-11-04T23:45:54.570Z,6.40
2022-11-04T23:48:39.982Z,4.20
2022-11-04T23:51:25.726Z,4.60
2022-11-04T23:54:11.119Z,5.50
2022-11-04T23:56:58.103Z,5.50
2022-11-04T23:59:43.432Z,4.43
